VOCB/CJB METAR and TAF weather

Enter ICAO airport designator
Station Type Date Time Source
VOCB METAR 2019/06/27 08:30 UTC NOAA

VOCB 270830Z 24010G27KT 8000 FEW015 34/18 Q1008 NOSIG


Station Type Date Time Source
VOCB Decoded METAR 2019/06/27 08:30 UTC NOAA

Coimbatore / Peelamedu, India (VOCB) 11-02N 077-03E 399M
Jun 27, 2019 - 04:30 AM EDT / 2019.06.27 0830 UTC
Wind: from the WSW (240 degrees) at 12 MPH (10 KT) gusting to 31 MPH (27 KT):0
Visibility: 4 mile(s):0
Sky conditions: mostly clear
Temperature: 93 F (34 C)
Heat index: 94.6 F (34.8 C):1
Dew Point: 64 F (18 C)
Relative Humidity: 38%
Pressure (altimeter): 29.77 in. Hg (1008 hPa)
ob: VOCB 270830Z 24010G27KT 8000 FEW015 34/18 Q1008 NOSIG
cycle: 8

Station Type Date Time Source
VOCB TAF 2019/06/27 06:00 UTC NOAA

TAF VOCB 270500Z 2706/2812 20010KT 6000 FEW015 SCT080
BECMG 2721/2722 VRB02KT 5000 BR
TEMPO 2800/2803 3000 BR
BECMG 2805/2806 20010KT 6000

Example: see airport list